This is the latest recevied weather packets stored in our database for station/object KD2DXJ. If no packets are shown the sender has not sent any weather packets the latest 10 day(s).
| Time | Temp. | Humidity | Pressure | Rain* | Wind** | Luminosity | Snow |
|---|---|---|---|---|---|---|---|
| 1777662661 | 12.78° C | 40% | 1010.9 hPa | 0 mm | - | 354 W/m² | - |
| 1777662356 | 12.78° C | 37% | 1010.6 hPa | 0 mm | - | 301 W/m² | - |
| 1777662052 | 12.22° C | 39% | 1010.7 hPa | 0 mm | - | 313 W/m² | - |
| 1777661748 | 11.67° C | 47% | 1010.8 hPa | 0 mm | - | 304 W/m² | - |
| 1777661444 | 11.67° C | 41% | 1010.8 hPa | 0 mm | - | 255 W/m² | - |
| 1777661140 | 12.78° C | 37% | 1011 hPa | 0 mm | - | 242 W/m² | - |
| 1777660840 | 11.67° C | 47% | 1010.6 hPa | 0 mm | - | 493 W/m² | - |
| 1777660538 | 11.11° C | 41% | 1011 hPa | 0 mm | - | 763 W/m² | - |
| 1777660234 | 10.56° C | 43% | 1011 hPa | 0 mm | - | 229 W/m² | - |
| 1777659931 | 10.56° C | 41% | 1011 hPa | 0 mm | - | 746 W/m² | - |
| 1777659628 | 11.11° C | 41% | 1011.1 hPa | 0 mm | - | 187 W/m² | - |
| 1777659325 | 10.56° C | 47% | 1011.1 hPa | 0 mm | - | 191 W/m² | - |
| 1777659021 | 12.78° C | 44% | 1011.2 hPa | 0 mm | - | 174 W/m² | - |
| 1777658719 | 13.33° C | 44% | 1011.2 hPa | 0 mm | - | 396 W/m² | - |
| 1777658415 | 12.78° C | 44% | 1011.3 hPa | 0 mm | - | 806 W/m² | - |
| 1777658112 | 12.22° C | 42% | 1011.3 hPa | 0 mm | - | 392 W/m² | - |
| 1777657809 | 10.56° C | 46% | 1011.4 hPa | 0 mm | - | 875 W/m² | - |
| 1777657506 | 10.56° C | 51% | 1011.6 hPa | 0 mm | - | 195 W/m² | - |
| 1777657204 | 10.56° C | 49% | 1011.5 hPa | 0 mm | - | 203 W/m² | - |
| 1777656901 | 10.56° C | 50% | 1011.4 hPa | 0 mm | - | 252 W/m² | - |
| 1777656596 | 11.11° C | 43% | 1011.6 hPa | 0 mm | - | 819 W/m² | - |
| 1777656293 | 11.11° C | 43% | 1011.7 hPa | 0 mm | - | 257 W/m² | - |
| 1777655988 | 11.67° C | 41% | 1011.5 hPa | 0 mm | - | 278 W/m² | - |
| 1777655684 | 12.22° C | 44% | 1011.8 hPa | 0 mm | - | 886 W/m² | - |
| 1777655381 | 10.56° C | 50% | 1011.6 hPa | 0 mm | - | 874 W/m² | - |
* Rain latest hour (hover to see other rain measurements)
** Current wind speed in m/s (hover to see current wind gust speed)